sensor_id;sensor_type;location;lat;lon;timestamp;P1;durP1;ratioP1;P2;durP2;ratioP2
75628;SDS011;64213;46.452;16.994;2023-09-19T00:01:37;16.77;;;5.90;;
75628;SDS011;64213;46.452;16.994;2023-09-19T00:04:40;14.50;;;5.20;;
75628;SDS011;64213;46.452;16.994;2023-09-19T00:07:45;15.23;;;5.87;;
75628;SDS011;64213;46.452;16.994;2023-09-19T00:10:47;15.73;;;5.87;;
75628;SDS011;64213;46.452;16.994;2023-09-19T00:13:50;17.60;;;5.80;;
75628;SDS011;64213;46.452;16.994;2023-09-19T00:16:53;15.07;;;5.53;;
75628;SDS011;64213;46.452;16.994;2023-09-19T00:19:56;15.77;;;5.40;;
75628;SDS011;64213;46.452;16.994;2023-09-19T00:22:58;12.45;;;5.00;;
75628;SDS011;64213;46.452;16.994;2023-09-19T00:26:10;14.45;;;5.22;;
75628;SDS011;64213;46.452;16.994;2023-09-19T00:29:12;12.57;;;5.40;;
75628;SDS011;64213;46.452;16.994;2023-09-19T00:32:18;14.77;;;6.03;;
75628;SDS011;64213;46.452;16.994;2023-09-19T00:35:20;15.25;;;4.93;;
75628;SDS011;64213;46.452;16.994;2023-09-19T00:38:26;14.35;;;5.07;;
75628;SDS011;64213;46.452;16.994;2023-09-19T00:41:29;15.27;;;5.05;;
75628;SDS011;64213;46.452;16.994;2023-09-19T00:44:32;14.30;;;5.10;;
75628;SDS011;64213;46.452;16.994;2023-09-19T00:47:36;13.37;;;5.17;;
75628;SDS011;64213;46.452;16.994;2023-09-19T00:50:51;14.55;;;5.05;;
75628;SDS011;64213;46.452;16.994;2023-09-19T00:53:55;12.40;;;4.97;;
75628;SDS011;64213;46.452;16.994;2023-09-19T00:56:58;14.55;;;5.05;;
75628;SDS011;64213;46.452;16.994;2023-09-19T01:00:01;14.55;;;5.22;;
75628;SDS011;64213;46.452;16.994;2023-09-19T01:03:08;16.90;;;5.30;;
75628;SDS011;64213;46.452;16.994;2023-09-19T01:06:12;12.90;;;5.18;;
75628;SDS011;64213;46.452;16.994;2023-09-19T01:09:15;15.38;;;5.82;;
75628;SDS011;64213;46.452;16.994;2023-09-19T01:12:19;14.85;;;5.45;;
75628;SDS011;64213;46.452;16.994;2023-09-19T01:22:03;10.55;;;4.78;;
75628;SDS011;64213;46.452;16.994;2023-09-19T01:32:10;15.65;;;5.15;;
75628;SDS011;64213;46.452;16.994;2023-09-19T01:35:16;13.77;;;4.90;;
75628;SDS011;64213;46.452;16.994;2023-09-19T01:38:20;13.15;;;4.85;;
75628;SDS011;64213;46.452;16.994;2023-09-19T01:41:26;16.10;;;5.15;;
75628;SDS011;64213;46.452;16.994;2023-09-19T01:47:53;14.18;;;4.62;;
75628;SDS011;64213;46.452;16.994;2023-09-19T01:51:00;13.33;;;4.80;;
75628;SDS011;64213;46.452;16.994;2023-09-19T01:54:10;13.32;;;4.68;;
75628;SDS011;64213;46.452;16.994;2023-09-19T02:00:30;16.17;;;5.20;;
75628;SDS011;64213;46.452;16.994;2023-09-19T02:03:36;15.85;;;5.28;;
75628;SDS011;64213;46.452;16.994;2023-09-19T02:06:40;14.63;;;5.17;;
75628;SDS011;64213;46.452;16.994;2023-09-19T02:09:44;13.13;;;4.72;;
75628;SDS011;64213;46.452;16.994;2023-09-19T02:12:46;18.77;;;5.22;;
75628;SDS011;64213;46.452;16.994;2023-09-19T02:15:49;16.65;;;4.65;;
75628;SDS011;64213;46.452;16.994;2023-09-19T02:18:51;16.00;;;5.45;;
75628;SDS011;64213;46.452;16.994;2023-09-19T02:21:53;15.30;;;4.67;;
75628;SDS011;64213;46.452;16.994;2023-09-19T02:24:56;15.63;;;4.68;;
75628;SDS011;64213;46.452;16.994;2023-09-19T02:28:01;15.05;;;5.03;;
75628;SDS011;64213;46.452;16.994;2023-09-19T02:31:04;14.85;;;4.80;;
75628;SDS011;64213;46.452;16.994;2023-09-19T02:34:09;16.52;;;5.47;;
75628;SDS011;64213;46.452;16.994;2023-09-19T02:37:12;15.80;;;5.80;;
75628;SDS011;64213;46.452;16.994;2023-09-19T02:40:15;12.55;;;4.82;;
75628;SDS011;64213;46.452;16.994;2023-09-19T02:43:21;18.02;;;5.00;;
75628;SDS011;64213;46.452;16.994;2023-09-19T02:46:24;11.98;;;5.35;;
75628;SDS011;64213;46.452;16.994;2023-09-19T02:49:27;12.48;;;4.97;;
75628;SDS011;64213;46.452;16.994;2023-09-19T02:52:29;17.30;;;4.97;;
75628;SDS011;64213;46.452;16.994;2023-09-19T02:55:32;12.57;;;4.55;;
75628;SDS011;64213;46.452;16.994;2023-09-19T02:58:35;14.85;;;5.15;;
75628;SDS011;64213;46.452;16.994;2023-09-19T03:01:37;13.48;;;5.32;;
75628;SDS011;64213;46.452;16.994;2023-09-19T03:04:40;12.02;;;4.82;;
75628;SDS011;64213;46.452;16.994;2023-09-19T03:07:42;18.13;;;5.30;;
75628;SDS011;64213;46.452;16.994;2023-09-19T03:10:48;17.25;;;4.85;;
75628;SDS011;64213;46.452;16.994;2023-09-19T03:13:51;18.92;;;5.00;;
75628;SDS011;64213;46.452;16.994;2023-09-19T03:16:54;13.50;;;4.90;;
75628;SDS011;64213;46.452;16.994;2023-09-19T03:19:57;14.68;;;5.00;;
75628;SDS011;64213;46.452;16.994;2023-09-19T03:23:00;15.73;;;5.07;;
75628;SDS011;64213;46.452;16.994;2023-09-19T03:26:02;15.50;;;4.97;;
75628;SDS011;64213;46.452;16.994;2023-09-19T03:29:07;14.20;;;5.35;;
75628;SDS011;64213;46.452;16.994;2023-09-19T03:32:09;17.60;;;5.15;;
75628;SDS011;64213;46.452;16.994;2023-09-19T03:35:12;19.55;;;5.78;;
75628;SDS011;64213;46.452;16.994;2023-09-19T03:38:15;13.40;;;5.00;;
75628;SDS011;64213;46.452;16.994;2023-09-19T03:41:18;18.67;;;5.87;;
75628;SDS011;64213;46.452;16.994;2023-09-19T03:44:21;14.10;;;5.20;;
75628;SDS011;64213;46.452;16.994;2023-09-19T03:47:24;15.68;;;5.72;;
75628;SDS011;64213;46.452;16.994;2023-09-19T03:50:26;14.70;;;5.37;;
75628;SDS011;64213;46.452;16.994;2023-09-19T03:53:28;13.97;;;5.30;;
75628;SDS011;64213;46.452;16.994;2023-09-19T03:56:31;16.58;;;5.18;;
75628;SDS011;64213;46.452;16.994;2023-09-19T03:59:33;15.75;;;5.65;;
75628;SDS011;64213;46.452;16.994;2023-09-19T04:02:38;14.98;;;5.40;;
75628;SDS011;64213;46.452;16.994;2023-09-19T04:05:41;12.45;;;5.45;;
75628;SDS011;64213;46.452;16.994;2023-09-19T04:08:44;18.23;;;5.60;;
75628;SDS011;64213;46.452;16.994;2023-09-19T04:11:46;15.23;;;5.62;;
75628;SDS011;64213;46.452;16.994;2023-09-19T04:14:49;14.87;;;5.60;;
75628;SDS011;64213;46.452;16.994;2023-09-19T04:17:52;16.08;;;6.07;;
75628;SDS011;64213;46.452;16.994;2023-09-19T04:20:55;17.52;;;5.85;;
75628;SDS011;64213;46.452;16.994;2023-09-19T04:23:58;19.50;;;6.27;;
75628;SDS011;64213;46.452;16.994;2023-09-19T04:27:01;17.98;;;5.75;;
75628;SDS011;64213;46.452;16.994;2023-09-19T04:30:04;16.85;;;6.45;;
75628;SDS011;64213;46.452;16.994;2023-09-19T04:33:12;14.30;;;5.50;;
75628;SDS011;64213;46.452;16.994;2023-09-19T04:36:16;17.37;;;6.37;;
75628;SDS011;64213;46.452;16.994;2023-09-19T04:39:36;15.47;;;6.50;;
75628;SDS011;64213;46.452;16.994;2023-09-19T04:42:39;19.55;;;6.32;;
75628;SDS011;64213;46.452;16.994;2023-09-19T04:45:44;18.05;;;6.62;;
75628;SDS011;64213;46.452;16.994;2023-09-19T04:48:46;19.98;;;6.35;;
75628;SDS011;64213;46.452;16.994;2023-09-19T04:51:48;19.58;;;6.43;;
75628;SDS011;64213;46.452;16.994;2023-09-19T04:54:50;16.83;;;6.77;;
75628;SDS011;64213;46.452;16.994;2023-09-19T04:57:53;24.30;;;6.72;;
75628;SDS011;64213;46.452;16.994;2023-09-19T05:00:55;19.77;;;7.00;;
75628;SDS011;64213;46.452;16.994;2023-09-19T05:03:58;17.40;;;7.20;;
75628;SDS011;64213;46.452;16.994;2023-09-19T05:07:00;17.55;;;7.55;;
75628;SDS011;64213;46.452;16.994;2023-09-19T05:10:05;19.07;;;6.83;;
75628;SDS011;64213;46.452;16.994;2023-09-19T05:13:08;18.10;;;6.28;;
75628;SDS011;64213;46.452;16.994;2023-09-19T05:16:11;17.42;;;6.12;;
75628;SDS011;64213;46.452;16.994;2023-09-19T05:19:14;14.10;;;4.87;;
75628;SDS011;64213;46.452;16.994;2023-09-19T05:22:16;10.65;;;3.97;;
75628;SDS011;64213;46.452;16.994;2023-09-19T05:25:20;9.03;;;3.00;;
75628;SDS011;64213;46.452;16.994;2023-09-19T05:28:22;9.70;;;2.40;;
75628;SDS011;64213;46.452;16.994;2023-09-19T05:31:25;8.18;;;1.92;;
75628;SDS011;64213;46.452;16.994;2023-09-19T05:34:27;7.85;;;1.87;;
75628;SDS011;64213;46.452;16.994;2023-09-19T05:37:32;6.70;;;1.87;;
75628;SDS011;64213;46.452;16.994;2023-09-19T05:40:34;9.53;;;1.50;;
75628;SDS011;64213;46.452;16.994;2023-09-19T05:43:37;7.82;;;1.35;;
75628;SDS011;64213;46.452;16.994;2023-09-19T05:46:39;8.07;;;1.37;;
75628;SDS011;64213;46.452;16.994;2023-09-19T05:49:42;7.07;;;1.30;;
75628;SDS011;64213;46.452;16.994;2023-09-19T05:52:51;7.65;;;1.70;;
75628;SDS011;64213;46.452;16.994;2023-09-19T05:55:54;8.10;;;1.47;;
75628;SDS011;64213;46.452;16.994;2023-09-19T05:58:58;11.15;;;1.40;;
75628;SDS011;64213;46.452;16.994;2023-09-19T06:02:01;8.75;;;1.45;;
75628;SDS011;64213;46.452;16.994;2023-09-19T06:05:06;6.62;;;1.30;;
75628;SDS011;64213;46.452;16.994;2023-09-19T06:08:12;8.50;;;2.17;;
75628;SDS011;64213;46.452;16.994;2023-09-19T06:11:14;7.67;;;1.13;;
75628;SDS011;64213;46.452;16.994;2023-09-19T06:14:16;6.18;;;1.27;;
75628;SDS011;64213;46.452;16.994;2023-09-19T06:17:19;9.55;;;1.40;;
75628;SDS011;64213;46.452;16.994;2023-09-19T06:20:24;7.25;;;1.55;;
75628;SDS011;64213;46.452;16.994;2023-09-19T06:23:27;6.97;;;1.80;;
75628;SDS011;64213;46.452;16.994;2023-09-19T06:26:30;6.40;;;1.30;;
75628;SDS011;64213;46.452;16.994;2023-09-19T06:29:34;11.18;;;1.62;;
75628;SDS011;64213;46.452;16.994;2023-09-19T06:32:36;7.28;;;1.55;;
75628;SDS011;64213;46.452;16.994;2023-09-19T06:35:38;8.15;;;1.40;;
75628;SDS011;64213;46.452;16.994;2023-09-19T06:38:41;7.22;;;1.20;;
75628;SDS011;64213;46.452;16.994;2023-09-19T06:41:43;9.73;;;1.50;;
75628;SDS011;64213;46.452;16.994;2023-09-19T06:44:47;7.75;;;1.30;;
75628;SDS011;64213;46.452;16.994;2023-09-19T06:47:50;6.78;;;1.58;;
75628;SDS011;64213;46.452;16.994;2023-09-19T06:50:53;9.88;;;1.83;;
75628;SDS011;64213;46.452;16.994;2023-09-19T06:53:57;8.35;;;1.27;;
75628;SDS011;64213;46.452;16.994;2023-09-19T06:57:00;9.23;;;1.37;;
75628;SDS011;64213;46.452;16.994;2023-09-19T07:00:02;7.72;;;1.20;;
75628;SDS011;64213;46.452;16.994;2023-09-19T07:03:13;7.82;;;1.40;;
75628;SDS011;64213;46.452;16.994;2023-09-19T07:06:16;7.22;;;1.40;;
75628;SDS011;64213;46.452;16.994;2023-09-19T07:09:19;7.87;;;1.40;;
75628;SDS011;64213;46.452;16.994;2023-09-19T07:12:23;6.43;;;1.10;;
75628;SDS011;64213;46.452;16.994;2023-09-19T07:15:26;6.78;;;1.30;;
75628;SDS011;64213;46.452;16.994;2023-09-19T07:18:29;7.68;;;1.37;;
75628;SDS011;64213;46.452;16.994;2023-09-19T07:21:32;6.03;;;1.10;;
75628;SDS011;64213;46.452;16.994;2023-09-19T07:24:34;6.90;;;1.12;;
75628;SDS011;64213;46.452;16.994;2023-09-19T07:27:38;6.57;;;1.00;;
75628;SDS011;64213;46.452;16.994;2023-09-19T07:30:41;7.18;;;1.20;;
75628;SDS011;64213;46.452;16.994;2023-09-19T07:33:43;7.20;;;1.15;;
75628;SDS011;64213;46.452;16.994;2023-09-19T07:36:46;5.62;;;1.10;;
75628;SDS011;64213;46.452;16.994;2023-09-19T07:39:48;6.78;;;1.15;;
75628;SDS011;64213;46.452;16.994;2023-09-19T07:42:52;5.57;;;1.00;;
75628;SDS011;64213;46.452;16.994;2023-09-19T07:45:54;6.82;;;1.02;;
75628;SDS011;64213;46.452;16.994;2023-09-19T07:48:57;6.05;;;1.12;;
75628;SDS011;64213;46.452;16.994;2023-09-19T07:52:00;6.43;;;1.00;;
75628;SDS011;64213;46.452;16.994;2023-09-19T07:55:02;6.85;;;1.40;;
75628;SDS011;64213;46.452;16.994;2023-09-19T07:58:10;6.10;;;1.13;;
75628;SDS011;64213;46.452;16.994;2023-09-19T08:01:13;5.50;;;0.90;;
75628;SDS011;64213;46.452;16.994;2023-09-19T08:04:16;7.03;;;1.33;;
75628;SDS011;64213;46.452;16.994;2023-09-19T08:07:18;5.62;;;1.20;;
75628;SDS011;64213;46.452;16.994;2023-09-19T08:10:21;6.70;;;1.37;;
75628;SDS011;64213;46.452;16.994;2023-09-19T08:13:24;4.77;;;0.90;;
75628;SDS011;64213;46.452;16.994;2023-09-19T08:16:27;5.72;;;1.17;;
75628;SDS011;64213;46.452;16.994;2023-09-19T08:19:30;6.12;;;1.00;;
75628;SDS011;64213;46.452;16.994;2023-09-19T08:22:34;5.60;;;1.23;;
75628;SDS011;64213;46.452;16.994;2023-09-19T08:25:36;8.38;;;1.23;;
75628;SDS011;64213;46.452;16.994;2023-09-19T08:28:40;4.97;;;1.00;;
75628;SDS011;64213;46.452;16.994;2023-09-19T08:31:43;4.35;;;1.05;;
75628;SDS011;64213;46.452;16.994;2023-09-19T08:34:45;5.57;;;1.10;;
75628;SDS011;64213;46.452;16.994;2023-09-19T08:37:48;5.18;;;0.88;;
75628;SDS011;64213;46.452;16.994;2023-09-19T08:40:50;5.18;;;1.00;;
75628;SDS011;64213;46.452;16.994;2023-09-19T08:43:52;4.87;;;0.80;;
75628;SDS011;64213;46.452;16.994;2023-09-19T08:46:57;5.62;;;1.10;;
75628;SDS011;64213;46.452;16.994;2023-09-19T08:50:11;6.32;;;1.30;;
75628;SDS011;64213;46.452;16.994;2023-09-19T08:53:33;5.28;;;0.88;;
75628;SDS011;64213;46.452;16.994;2023-09-19T08:56:56;5.70;;;1.08;;
75628;SDS011;64213;46.452;16.994;2023-09-19T09:00:04;6.57;;;0.80;;
75628;SDS011;64213;46.452;16.994;2023-09-19T09:03:12;4.82;;;0.80;;
75628;SDS011;64213;46.452;16.994;2023-09-19T09:06:16;5.85;;;1.42;;
75628;SDS011;64213;46.452;16.994;2023-09-19T09:09:20;6.70;;;1.05;;
75628;SDS011;64213;46.452;16.994;2023-09-19T09:12:23;6.97;;;1.35;;
75628;SDS011;64213;46.452;16.994;2023-09-19T09:15:25;6.73;;;1.40;;
75628;SDS011;64213;46.452;16.994;2023-09-19T09:18:31;8.00;;;1.60;;
75628;SDS011;64213;46.452;16.994;2023-09-19T09:21:34;6.05;;;1.10;;
75628;SDS011;64213;46.452;16.994;2023-09-19T09:24:53;6.10;;;1.05;;
75628;SDS011;64213;46.452;16.994;2023-09-19T09:28:00;6.20;;;1.10;;
75628;SDS011;64213;46.452;16.994;2023-09-19T09:31:04;5.67;;;1.10;;
75628;SDS011;64213;46.452;16.994;2023-09-19T09:34:15;5.00;;;1.08;;
75628;SDS011;64213;46.452;16.994;2023-09-19T09:37:18;6.05;;;1.27;;
75628;SDS011;64213;46.452;16.994;2023-09-19T09:40:24;6.60;;;1.67;;
75628;SDS011;64213;46.452;16.994;2023-09-19T09:43:40;7.15;;;1.65;;
75628;SDS011;64213;46.452;16.994;2023-09-19T09:46:47;6.27;;;1.10;;
75628;SDS011;64213;46.452;16.994;2023-09-19T09:49:56;7.07;;;1.20;;
75628;SDS011;64213;46.452;16.994;2023-09-19T09:53:22;6.25;;;1.20;;
75628;SDS011;64213;46.452;16.994;2023-09-19T09:56:31;7.45;;;1.30;;
75628;SDS011;64213;46.452;16.994;2023-09-19T09:59:52;5.18;;;1.30;;
75628;SDS011;64213;46.452;16.994;2023-09-19T10:02:57;5.63;;;1.17;;
75628;SDS011;64213;46.452;16.994;2023-09-19T10:06:00;6.82;;;1.40;;
75628;SDS011;64213;46.452;16.994;2023-09-19T10:09:12;6.55;;;1.45;;
75628;SDS011;64213;46.452;16.994;2023-09-19T10:12:18;6.55;;;1.37;;
75628;SDS011;64213;46.452;16.994;2023-09-19T10:15:23;6.50;;;1.50;;
75628;SDS011;64213;46.452;16.994;2023-09-19T10:18:28;5.50;;;1.03;;
75628;SDS011;64213;46.452;16.994;2023-09-19T10:21:35;6.15;;;1.50;;
75628;SDS011;64213;46.452;16.994;2023-09-19T10:24:38;6.62;;;1.48;;
75628;SDS011;64213;46.452;16.994;2023-09-19T10:28:01;5.95;;;1.55;;
75628;SDS011;64213;46.452;16.994;2023-09-19T10:31:14;5.62;;;1.60;;
75628;SDS011;64213;46.452;16.994;2023-09-19T10:34:21;5.50;;;1.50;;
75628;SDS011;64213;46.452;16.994;2023-09-19T10:37:25;6.50;;;1.52;;
75628;SDS011;64213;46.452;16.994;2023-09-19T10:40:32;6.10;;;1.60;;
75628;SDS011;64213;46.452;16.994;2023-09-19T10:43:37;6.47;;;1.60;;
75628;SDS011;64213;46.452;16.994;2023-09-19T10:46:41;6.97;;;1.50;;
75628;SDS011;64213;46.452;16.994;2023-09-19T10:49:45;7.67;;;1.63;;
75628;SDS011;64213;46.452;16.994;2023-09-19T10:52:49;6.18;;;1.50;;
75628;SDS011;64213;46.452;16.994;2023-09-19T10:56:00;7.37;;;1.80;;
75628;SDS011;64213;46.452;16.994;2023-09-19T10:59:12;6.37;;;1.50;;
75628;SDS011;64213;46.452;16.994;2023-09-19T11:02:23;6.90;;;1.80;;
75628;SDS011;64213;46.452;16.994;2023-09-19T11:05:26;5.83;;;1.50;;
75628;SDS011;64213;46.452;16.994;2023-09-19T11:08:50;6.05;;;1.60;;
75628;SDS011;64213;46.452;16.994;2023-09-19T11:16:02;5.85;;;1.42;;
75628;SDS011;64213;46.452;16.994;2023-09-19T11:19:06;6.18;;;1.67;;
75628;SDS011;64213;46.452;16.994;2023-09-19T11:22:12;7.07;;;1.60;;
75628;SDS011;64213;46.452;16.994;2023-09-19T11:28:34;6.47;;;1.90;;
75628;SDS011;64213;46.452;16.994;2023-09-19T11:31:42;7.25;;;1.80;;
75628;SDS011;64213;46.452;16.994;2023-09-19T11:34:48;7.75;;;1.60;;
75628;SDS011;64213;46.452;16.994;2023-09-19T11:44:40;6.50;;;2.10;;
75628;SDS011;64213;46.452;16.994;2023-09-19T11:47:44;5.57;;;1.83;;
75628;SDS011;64213;46.452;16.994;2023-09-19T11:50:48;7.80;;;2.17;;
75628;SDS011;64213;46.452;16.994;2023-09-19T11:53:53;6.07;;;1.77;;
75628;SDS011;64213;46.452;16.994;2023-09-19T11:56:57;6.10;;;1.75;;
75628;SDS011;64213;46.452;16.994;2023-09-19T12:00:01;6.22;;;2.28;;
75628;SDS011;64213;46.452;16.994;2023-09-19T12:03:08;6.32;;;1.87;;
75628;SDS011;64213;46.452;16.994;2023-09-19T12:06:14;6.57;;;2.28;;
75628;SDS011;64213;46.452;16.994;2023-09-19T12:09:19;6.07;;;2.13;;
75628;SDS011;64213;46.452;16.994;2023-09-19T12:12:28;5.85;;;2.10;;
75628;SDS011;64213;46.452;16.994;2023-09-19T12:15:32;5.50;;;1.75;;
75628;SDS011;64213;46.452;16.994;2023-09-19T12:18:41;7.07;;;1.98;;
75628;SDS011;64213;46.452;16.994;2023-09-19T12:21:53;9.77;;;2.30;;
75628;SDS011;64213;46.452;16.994;2023-09-19T12:25:05;6.57;;;2.00;;
75628;SDS011;64213;46.452;16.994;2023-09-19T12:28:09;6.32;;;2.20;;
75628;SDS011;64213;46.452;16.994;2023-09-19T12:31:11;6.10;;;2.20;;
75628;SDS011;64213;46.452;16.994;2023-09-19T12:34:16;5.97;;;1.77;;
75628;SDS011;64213;46.452;16.994;2023-09-19T12:37:45;5.93;;;2.20;;
75628;SDS011;64213;46.452;16.994;2023-09-19T12:40:55;5.67;;;1.70;;
75628;SDS011;64213;46.452;16.994;2023-09-19T12:44:02;6.30;;;2.10;;
75628;SDS011;64213;46.452;16.994;2023-09-19T12:47:11;6.87;;;2.25;;
75628;SDS011;64213;46.452;16.994;2023-09-19T12:50:17;6.45;;;2.40;;
75628;SDS011;64213;46.452;16.994;2023-09-19T12:53:26;5.80;;;1.90;;
75628;SDS011;64213;46.452;16.994;2023-09-19T12:56:39;6.70;;;2.57;;
75628;SDS011;64213;46.452;16.994;2023-09-19T12:59:46;7.12;;;2.03;;
75628;SDS011;64213;46.452;16.994;2023-09-19T13:03:13;5.65;;;2.03;;
75628;SDS011;64213;46.452;16.994;2023-09-19T13:06:34;5.82;;;1.77;;
75628;SDS011;64213;46.452;16.994;2023-09-19T13:10:01;6.78;;;2.30;;
75628;SDS011;64213;46.452;16.994;2023-09-19T13:13:22;6.93;;;1.73;;
75628;SDS011;64213;46.452;16.994;2023-09-19T13:16:26;7.85;;;1.98;;
75628;SDS011;64213;46.452;16.994;2023-09-19T13:19:42;6.53;;;2.20;;
75628;SDS011;64213;46.452;16.994;2023-09-19T13:22:51;6.68;;;2.00;;
75628;SDS011;64213;46.452;16.994;2023-09-19T13:25:56;6.40;;;2.12;;
75628;SDS011;64213;46.452;16.994;2023-09-19T13:28:58;6.77;;;1.87;;
75628;SDS011;64213;46.452;16.994;2023-09-19T13:32:01;6.53;;;2.28;;
75628;SDS011;64213;46.452;16.994;2023-09-19T13:35:04;5.95;;;2.15;;
75628;SDS011;64213;46.452;16.994;2023-09-19T13:38:07;5.75;;;1.77;;
75628;SDS011;64213;46.452;16.994;2023-09-19T13:41:13;7.12;;;1.80;;
75628;SDS011;64213;46.452;16.994;2023-09-19T13:44:16;5.57;;;1.70;;
75628;SDS011;64213;46.452;16.994;2023-09-19T13:47:19;8.15;;;1.70;;
75628;SDS011;64213;46.452;16.994;2023-09-19T13:50:26;6.28;;;1.90;;
75628;SDS011;64213;46.452;16.994;2023-09-19T13:53:30;7.12;;;1.80;;
75628;SDS011;64213;46.452;16.994;2023-09-19T13:56:33;6.62;;;1.95;;
75628;SDS011;64213;46.452;16.994;2023-09-19T13:59:35;8.20;;;2.10;;
75628;SDS011;64213;46.452;16.994;2023-09-19T14:02:38;6.22;;;1.77;;
75628;SDS011;64213;46.452;16.994;2023-09-19T14:05:41;6.35;;;2.00;;
75628;SDS011;64213;46.452;16.994;2023-09-19T14:08:44;6.90;;;1.60;;
75628;SDS011;64213;46.452;16.994;2023-09-19T14:11:49;6.55;;;1.87;;
75628;SDS011;64213;46.452;16.994;2023-09-19T14:14:54;6.87;;;1.50;;
75628;SDS011;64213;46.452;16.994;2023-09-19T14:17:58;5.78;;;1.50;;
75628;SDS011;64213;46.452;16.994;2023-09-19T14:21:05;5.85;;;1.70;;
75628;SDS011;64213;46.452;16.994;2023-09-19T14:24:08;6.00;;;1.60;;
75628;SDS011;64213;46.452;16.994;2023-09-19T14:27:11;8.73;;;1.60;;
75628;SDS011;64213;46.452;16.994;2023-09-19T14:30:13;6.03;;;1.40;;
75628;SDS011;64213;46.452;16.994;2023-09-19T14:33:16;6.15;;;1.60;;
75628;SDS011;64213;46.452;16.994;2023-09-19T14:36:18;6.00;;;1.90;;
75628;SDS011;64213;46.452;16.994;2023-09-19T14:39:21;5.78;;;1.77;;
75628;SDS011;64213;46.452;16.994;2023-09-19T14:42:24;6.55;;;1.73;;
75628;SDS011;64213;46.452;16.994;2023-09-19T14:45:26;6.40;;;1.87;;
75628;SDS011;64213;46.452;16.994;2023-09-19T14:48:30;6.43;;;1.62;;
75628;SDS011;64213;46.452;16.994;2023-09-19T14:51:32;6.10;;;1.48;;
75628;SDS011;64213;46.452;16.994;2023-09-19T14:54:35;6.82;;;1.60;;
75628;SDS011;64213;46.452;16.994;2023-09-19T14:57:40;5.53;;;1.70;;
75628;SDS011;64213;46.452;16.994;2023-09-19T15:00:44;5.70;;;1.60;;
75628;SDS011;64213;46.452;16.994;2023-09-19T15:03:47;6.05;;;1.60;;
75628;SDS011;64213;46.452;16.994;2023-09-19T15:06:52;6.10;;;1.65;;
75628;SDS011;64213;46.452;16.994;2023-09-19T15:09:56;6.85;;;1.85;;
75628;SDS011;64213;46.452;16.994;2023-09-19T15:12:59;5.60;;;1.58;;
75628;SDS011;64213;46.452;16.994;2023-09-19T15:19:06;7.15;;;1.60;;
75628;SDS011;64213;46.452;16.994;2023-09-19T15:22:09;6.82;;;1.60;;
75628;SDS011;64213;46.452;16.994;2023-09-19T15:25:13;5.68;;;1.60;;
75628;SDS011;64213;46.452;16.994;2023-09-19T15:28:16;8.55;;;1.87;;
75628;SDS011;64213;46.452;16.994;2023-09-19T15:31:18;5.57;;;1.30;;
75628;SDS011;64213;46.452;16.994;2023-09-19T15:34:21;5.75;;;1.42;;
75628;SDS011;64213;46.452;16.994;2023-09-19T15:37:24;6.80;;;1.60;;
75628;SDS011;64213;46.452;16.994;2023-09-19T15:40:27;6.68;;;1.40;;
75628;SDS011;64213;46.452;16.994;2023-09-19T15:43:31;7.55;;;1.98;;
75628;SDS011;64213;46.452;16.994;2023-09-19T15:46:35;6.20;;;1.60;;
75628;SDS011;64213;46.452;16.994;2023-09-19T15:49:38;5.70;;;1.45;;
75628;SDS011;64213;46.452;16.994;2023-09-19T15:52:41;6.05;;;1.55;;
75628;SDS011;64213;46.452;16.994;2023-09-19T15:55:44;6.10;;;1.90;;
75628;SDS011;64213;46.452;16.994;2023-09-19T15:58:47;5.80;;;1.45;;
75628;SDS011;64213;46.452;16.994;2023-09-19T16:01:51;6.83;;;1.60;;
75628;SDS011;64213;46.452;16.994;2023-09-19T16:04:56;7.07;;;1.70;;
75628;SDS011;64213;46.452;16.994;2023-09-19T16:07:59;5.75;;;1.50;;
75628;SDS011;64213;46.452;16.994;2023-09-19T16:11:04;6.37;;;1.60;;
75628;SDS011;64213;46.452;16.994;2023-09-19T16:14:07;7.05;;;1.60;;
75628;SDS011;64213;46.452;16.994;2023-09-19T16:17:12;6.17;;;1.30;;
75628;SDS011;64213;46.452;16.994;2023-09-19T16:20:15;7.53;;;1.65;;
75628;SDS011;64213;46.452;16.994;2023-09-19T16:23:19;5.35;;;1.30;;
75628;SDS011;64213;46.452;16.994;2023-09-19T16:26:22;6.50;;;1.52;;
75628;SDS011;64213;46.452;16.994;2023-09-19T16:29:26;6.53;;;1.50;;
75628;SDS011;64213;46.452;16.994;2023-09-19T16:32:29;6.10;;;1.50;;
75628;SDS011;64213;46.452;16.994;2023-09-19T16:35:36;5.78;;;1.52;;
75628;SDS011;64213;46.452;16.994;2023-09-19T16:38:41;6.18;;;1.35;;
75628;SDS011;64213;46.452;16.994;2023-09-19T16:41:46;6.00;;;1.23;;
75628;SDS011;64213;46.452;16.994;2023-09-19T16:44:49;6.68;;;1.40;;
75628;SDS011;64213;46.452;16.994;2023-09-19T16:47:52;6.73;;;1.10;;
75628;SDS011;64213;46.452;16.994;2023-09-19T16:50:54;6.37;;;1.33;;
75628;SDS011;64213;46.452;16.994;2023-09-19T16:54:01;5.57;;;1.40;;
75628;SDS011;64213;46.452;16.994;2023-09-19T16:57:04;6.82;;;1.45;;
75628;SDS011;64213;46.452;16.994;2023-09-19T17:00:07;6.53;;;1.40;;
75628;SDS011;64213;46.452;16.994;2023-09-19T17:03:12;5.50;;;1.33;;
75628;SDS011;64213;46.452;16.994;2023-09-19T17:06:16;4.82;;;1.17;;
75628;SDS011;64213;46.452;16.994;2023-09-19T17:09:24;5.50;;;1.10;;
75628;SDS011;64213;46.452;16.994;2023-09-19T17:12:29;6.05;;;1.20;;
75628;SDS011;64213;46.452;16.994;2023-09-19T17:15:58;5.20;;;1.55;;
75628;SDS011;64213;46.452;16.994;2023-09-19T17:19:05;7.10;;;1.00;;
75628;SDS011;64213;46.452;16.994;2023-09-19T17:22:10;8.30;;;1.67;;
75628;SDS011;64213;46.452;16.994;2023-09-19T17:25:14;5.90;;;1.50;;
75628;SDS011;64213;46.452;16.994;2023-09-19T17:28:18;6.07;;;0.80;;
75628;SDS011;64213;46.452;16.994;2023-09-19T17:31:23;4.43;;;0.80;;
75628;SDS011;64213;46.452;16.994;2023-09-19T17:34:29;3.73;;;0.70;;
75628;SDS011;64213;46.452;16.994;2023-09-19T17:37:34;4.22;;;0.73;;
75628;SDS011;64213;46.452;16.994;2023-09-19T17:40:42;6.68;;;0.93;;
75628;SDS011;64213;46.452;16.994;2023-09-19T17:43:54;4.57;;;0.70;;
75628;SDS011;64213;46.452;16.994;2023-09-19T17:47:00;6.53;;;1.00;;
75628;SDS011;64213;46.452;16.994;2023-09-19T17:50:06;4.20;;;0.90;;
75628;SDS011;64213;46.452;16.994;2023-09-19T17:53:15;5.18;;;0.95;;
75628;SDS011;64213;46.452;16.994;2023-09-19T17:56:21;5.22;;;1.05;;
75628;SDS011;64213;46.452;16.994;2023-09-19T17:59:30;4.95;;;1.00;;
75628;SDS011;64213;46.452;16.994;2023-09-19T18:02:35;5.28;;;1.00;;
75628;SDS011;64213;46.452;16.994;2023-09-19T18:05:44;8.23;;;1.00;;
75628;SDS011;64213;46.452;16.994;2023-09-19T18:08:58;6.03;;;1.27;;
75628;SDS011;64213;46.452;16.994;2023-09-19T18:12:04;6.05;;;1.10;;
75628;SDS011;64213;46.452;16.994;2023-09-19T18:15:10;6.15;;;1.10;;
75628;SDS011;64213;46.452;16.994;2023-09-19T18:18:20;5.72;;;1.17;;
75628;SDS011;64213;46.452;16.994;2023-09-19T18:21:29;5.93;;;1.30;;
75628;SDS011;64213;46.452;16.994;2023-09-19T18:24:40;4.87;;;0.80;;
75628;SDS011;64213;46.452;16.994;2023-09-19T18:27:47;8.57;;;1.50;;
75628;SDS011;64213;46.452;16.994;2023-09-19T18:30:51;7.07;;;1.30;;
75628;SDS011;64213;46.452;16.994;2023-09-19T18:33:55;8.40;;;1.35;;
75628;SDS011;64213;46.452;16.994;2023-09-19T18:36:59;5.60;;;0.97;;
75628;SDS011;64213;46.452;16.994;2023-09-19T18:40:02;5.40;;;1.17;;
75628;SDS011;64213;46.452;16.994;2023-09-19T18:43:05;8.05;;;1.40;;
75628;SDS011;64213;46.452;16.994;2023-09-19T18:46:08;8.65;;;1.35;;
75628;SDS011;64213;46.452;16.994;2023-09-19T18:49:16;5.50;;;1.12;;
75628;SDS011;64213;46.452;16.994;2023-09-19T18:52:19;6.10;;;1.20;;